Callao, Utah
Current Conditions -  °F | °C
As of 1:55 PM on Saturday 25 Oct 2014 (Local Time) from KENV Reporting Station
Clear Clear  
Wind Chill: 70°   Ceiling: Unl
Heat Index: 70°   Visibility: 10mi
Dew Point: 36°   Wind: 8mph
Humidity: 28%   Direction: 60°ENE
Pressure: 29.96"   Gusts: NA
Location:  40.0375°N, 113.984°W
Report Text: KENV 251955Z AUTO 06007KT 10SM CLR 21/02 A2996 RMK AO1
Loading
Personal Weather Stations






























Interactive Weather Map
Tropical Storm Tracking
New forecast layout! Learn more

10-Day Weather Forecast

Advertisements
Track Severe Weather on mobile